sensor_id;sensor_type;location;lat;lon;timestamp;P1;durP1;ratioP1;P2;durP2;ratioP2
70414;SDS011;57837;52.064;113.478;2023-06-10T00:01:17;10.85;;;7.05;;
70414;SDS011;57837;52.064;113.478;2023-06-10T00:04:21;8.90;;;4.90;;
70414;SDS011;57837;52.064;113.478;2023-06-10T00:07:25;15.18;;;4.72;;
70414;SDS011;57837;52.064;113.478;2023-06-10T00:10:28;7.50;;;4.38;;
70414;SDS011;57837;52.064;113.478;2023-06-10T00:13:32;10.30;;;5.05;;
70414;SDS011;57837;52.064;113.478;2023-06-10T00:16:35;10.05;;;4.72;;
70414;SDS011;57837;52.064;113.478;2023-06-10T00:19:39;10.33;;;5.40;;
70414;SDS011;57837;52.064;113.478;2023-06-10T00:22:44;7.35;;;4.88;;
70414;SDS011;57837;52.064;113.478;2023-06-10T00:25:48;8.43;;;4.70;;
70414;SDS011;57837;52.064;113.478;2023-06-10T00:28:52;12.02;;;5.05;;
70414;SDS011;57837;52.064;113.478;2023-06-10T00:31:56;10.38;;;4.50;;
70414;SDS011;57837;52.064;113.478;2023-06-10T00:35:01;8.90;;;4.43;;
70414;SDS011;57837;52.064;113.478;2023-06-10T00:38:10;11.30;;;4.63;;
70414;SDS011;57837;52.064;113.478;2023-06-10T00:41:13;10.80;;;4.30;;
70414;SDS011;57837;52.064;113.478;2023-06-10T00:44:18;10.02;;;3.60;;
70414;SDS011;57837;52.064;113.478;2023-06-10T00:47:21;12.93;;;3.25;;
70414;SDS011;57837;52.064;113.478;2023-06-10T00:50:25;11.00;;;3.40;;
70414;SDS011;57837;52.064;113.478;2023-06-10T00:53:29;9.27;;;3.40;;
70414;SDS011;57837;52.064;113.478;2023-06-10T00:56:33;10.77;;;3.13;;
70414;SDS011;57837;52.064;113.478;2023-06-10T00:59:38;11.73;;;3.00;;
70414;SDS011;57837;52.064;113.478;2023-06-10T01:02:44;5.72;;;2.55;;
70414;SDS011;57837;52.064;113.478;2023-06-10T01:05:48;13.20;;;3.47;;
70414;SDS011;57837;52.064;113.478;2023-06-10T01:09:18;11.43;;;3.20;;
70414;SDS011;57837;52.064;113.478;2023-06-10T01:16:11;8.73;;;2.80;;
70414;SDS011;57837;52.064;113.478;2023-06-10T01:19:15;2.97;;;1.40;;
70414;SDS011;57837;52.064;113.478;2023-06-10T01:22:19;5.63;;;1.63;;
70414;SDS011;57837;52.064;113.478;2023-06-10T01:25:26;4.93;;;1.55;;
70414;SDS011;57837;52.064;113.478;2023-06-10T01:28:33;3.03;;;1.27;;
70414;SDS011;57837;52.064;113.478;2023-06-10T01:31:49;2.65;;;0.93;;
70414;SDS011;57837;52.064;113.478;2023-06-10T01:35:07;4.15;;;2.58;;
70414;SDS011;57837;52.064;113.478;2023-06-10T01:38:12;4.60;;;1.40;;
70414;SDS011;57837;52.064;113.478;2023-06-10T01:41:18;4.35;;;1.40;;
70414;SDS011;57837;52.064;113.478;2023-06-10T01:44:23;2.42;;;1.30;;
70414;SDS011;57837;52.064;113.478;2023-06-10T01:47:27;2.35;;;1.20;;
70414;SDS011;57837;52.064;113.478;2023-06-10T01:50:31;3.38;;;1.23;;
70414;SDS011;57837;52.064;113.478;2023-06-10T01:53:35;4.23;;;1.10;;
70414;SDS011;57837;52.064;113.478;2023-06-10T01:56:38;2.22;;;1.13;;
70414;SDS011;57837;52.064;113.478;2023-06-10T01:59:42;2.15;;;1.27;;
70414;SDS011;57837;52.064;113.478;2023-06-10T02:02:46;19.58;;;2.42;;
70414;SDS011;57837;52.064;113.478;2023-06-10T02:05:50;2.88;;;1.10;;
70414;SDS011;57837;52.064;113.478;2023-06-10T02:08:54;5.93;;;1.33;;
70414;SDS011;57837;52.064;113.478;2023-06-10T02:11:57;3.42;;;1.17;;
70414;SDS011;57837;52.064;113.478;2023-06-10T02:15:00;3.97;;;1.10;;
70414;SDS011;57837;52.064;113.478;2023-06-10T02:18:03;4.93;;;1.15;;
70414;SDS011;57837;52.064;113.478;2023-06-10T02:21:07;2.58;;;0.80;;
70414;SDS011;57837;52.064;113.478;2023-06-10T02:24:10;1.93;;;1.00;;
70414;SDS011;57837;52.064;113.478;2023-06-10T02:27:15;3.72;;;1.40;;
70414;SDS011;57837;52.064;113.478;2023-06-10T02:30:19;4.47;;;1.40;;
70414;SDS011;57837;52.064;113.478;2023-06-10T02:33:22;5.10;;;1.33;;
70414;SDS011;57837;52.064;113.478;2023-06-10T02:36:27;4.45;;;1.50;;
70414;SDS011;57837;52.064;113.478;2023-06-10T02:39:31;4.53;;;1.40;;
70414;SDS011;57837;52.064;113.478;2023-06-10T02:42:37;3.60;;;1.55;;
70414;SDS011;57837;52.064;113.478;2023-06-10T02:45:41;7.47;;;1.48;;
70414;SDS011;57837;52.064;113.478;2023-06-10T02:48:45;9.23;;;1.65;;
70414;SDS011;57837;52.064;113.478;2023-06-10T02:51:54;16.52;;;2.60;;
70414;SDS011;57837;52.064;113.478;2023-06-10T02:54:59;7.13;;;1.80;;
70414;SDS011;57837;52.064;113.478;2023-06-10T02:58:03;10.80;;;5.32;;
70414;SDS011;57837;52.064;113.478;2023-06-10T03:01:08;3.67;;;1.70;;
70414;SDS011;57837;52.064;113.478;2023-06-10T03:04:22;3.00;;;0.98;;
70414;SDS011;57837;52.064;113.478;2023-06-10T03:07:36;3.33;;;2.05;;
70414;SDS011;57837;52.064;113.478;2023-06-10T03:10:39;9.43;;;2.30;;
70414;SDS011;57837;52.064;113.478;2023-06-10T03:13:44;2.92;;;1.40;;
70414;SDS011;57837;52.064;113.478;2023-06-10T03:16:51;4.00;;;1.50;;
70414;SDS011;57837;52.064;113.478;2023-06-10T03:19:57;5.43;;;1.63;;
70414;SDS011;57837;52.064;113.478;2023-06-10T03:23:00;3.15;;;1.55;;
70414;SDS011;57837;52.064;113.478;2023-06-10T03:26:04;2.17;;;1.50;;
70414;SDS011;57837;52.064;113.478;2023-06-10T03:29:11;3.03;;;1.40;;
70414;SDS011;57837;52.064;113.478;2023-06-10T03:32:15;2.55;;;1.50;;
70414;SDS011;57837;52.064;113.478;2023-06-10T03:35:19;5.95;;;1.88;;
70414;SDS011;57837;52.064;113.478;2023-06-10T03:38:23;4.65;;;1.48;;
70414;SDS011;57837;52.064;113.478;2023-06-10T03:41:27;7.97;;;1.80;;
70414;SDS011;57837;52.064;113.478;2023-06-10T03:44:32;2.92;;;1.63;;
70414;SDS011;57837;52.064;113.478;2023-06-10T03:47:37;4.82;;;2.35;;
70414;SDS011;57837;52.064;113.478;2023-06-10T03:50:44;6.47;;;1.95;;
70414;SDS011;57837;52.064;113.478;2023-06-10T03:53:52;2.95;;;1.67;;
70414;SDS011;57837;52.064;113.478;2023-06-10T03:56:56;4.40;;;1.50;;
70414;SDS011;57837;52.064;113.478;2023-06-10T04:00:00;2.80;;;1.55;;
70414;SDS011;57837;52.064;113.478;2023-06-10T04:03:15;3.25;;;1.40;;
70414;SDS011;57837;52.064;113.478;2023-06-10T04:06:23;6.10;;;1.60;;
70414;SDS011;57837;52.064;113.478;2023-06-10T04:09:28;2.80;;;1.40;;
70414;SDS011;57837;52.064;113.478;2023-06-10T04:12:32;11.70;;;1.77;;
70414;SDS011;57837;52.064;113.478;2023-06-10T04:15:36;6.50;;;1.90;;
70414;SDS011;57837;52.064;113.478;2023-06-10T04:18:44;4.93;;;1.80;;
70414;SDS011;57837;52.064;113.478;2023-06-10T04:21:48;5.43;;;1.65;;
70414;SDS011;57837;52.064;113.478;2023-06-10T04:24:52;2.80;;;1.63;;
70414;SDS011;57837;52.064;113.478;2023-06-10T04:27:56;2.73;;;1.70;;
70414;SDS011;57837;52.064;113.478;2023-06-10T04:31:00;10.38;;;1.85;;
70414;SDS011;57837;52.064;113.478;2023-06-10T04:34:05;3.22;;;1.63;;
70414;SDS011;57837;52.064;113.478;2023-06-10T04:37:10;7.53;;;1.70;;
70414;SDS011;57837;52.064;113.478;2023-06-10T04:40:14;4.38;;;1.90;;
70414;SDS011;57837;52.064;113.478;2023-06-10T04:43:21;2.27;;;1.57;;
70414;SDS011;57837;52.064;113.478;2023-06-10T04:46:25;3.72;;;1.55;;
70414;SDS011;57837;52.064;113.478;2023-06-10T04:49:29;4.80;;;1.98;;
70414;SDS011;57837;52.064;113.478;2023-06-10T04:52:32;3.40;;;1.80;;
70414;SDS011;57837;52.064;113.478;2023-06-10T04:55:36;3.13;;;1.85;;
70414;SDS011;57837;52.064;113.478;2023-06-10T04:58:40;9.23;;;1.87;;
70414;SDS011;57837;52.064;113.478;2023-06-10T05:01:44;5.05;;;1.80;;
70414;SDS011;57837;52.064;113.478;2023-06-10T05:04:47;4.88;;;2.15;;
70414;SDS011;57837;52.064;113.478;2023-06-10T05:07:51;10.82;;;1.40;;
70414;SDS011;57837;52.064;113.478;2023-06-10T05:10:55;3.67;;;1.77;;
70414;SDS011;57837;52.064;113.478;2023-06-10T05:13:59;11.60;;;2.37;;
70414;SDS011;57837;52.064;113.478;2023-06-10T05:17:03;6.72;;;1.55;;
70414;SDS011;57837;52.064;113.478;2023-06-10T05:20:09;7.45;;;2.00;;
70414;SDS011;57837;52.064;113.478;2023-06-10T05:23:13;9.23;;;1.67;;
70414;SDS011;57837;52.064;113.478;2023-06-10T05:26:17;4.85;;;2.00;;
70414;SDS011;57837;52.064;113.478;2023-06-10T05:29:21;5.37;;;1.70;;
70414;SDS011;57837;52.064;113.478;2023-06-10T05:32:25;4.13;;;1.80;;
70414;SDS011;57837;52.064;113.478;2023-06-10T05:35:29;4.32;;;2.05;;
70414;SDS011;57837;52.064;113.478;2023-06-10T05:38:33;2.97;;;1.80;;
70414;SDS011;57837;52.064;113.478;2023-06-10T05:41:37;4.47;;;1.98;;
70414;SDS011;57837;52.064;113.478;2023-06-10T05:44:40;7.17;;;2.20;;
70414;SDS011;57837;52.064;113.478;2023-06-10T05:47:44;5.35;;;2.00;;
70414;SDS011;57837;52.064;113.478;2023-06-10T05:50:47;2.72;;;1.80;;
70414;SDS011;57837;52.064;113.478;2023-06-10T05:53:52;5.72;;;1.83;;
70414;SDS011;57837;52.064;113.478;2023-06-10T05:56:55;3.80;;;1.70;;
70414;SDS011;57837;52.064;113.478;2023-06-10T06:00:00;5.13;;;2.07;;
70414;SDS011;57837;52.064;113.478;2023-06-10T06:03:12;7.85;;;2.30;;
70414;SDS011;57837;52.064;113.478;2023-06-10T06:06:16;5.25;;;1.95;;
70414;SDS011;57837;52.064;113.478;2023-06-10T06:09:20;3.70;;;1.73;;
70414;SDS011;57837;52.064;113.478;2023-06-10T06:12:24;2.95;;;1.50;;
70414;SDS011;57837;52.064;113.478;2023-06-10T06:15:27;5.80;;;1.60;;
70414;SDS011;57837;52.064;113.478;2023-06-10T06:18:31;5.93;;;1.50;;
70414;SDS011;57837;52.064;113.478;2023-06-10T06:21:35;3.75;;;1.92;;
70414;SDS011;57837;52.064;113.478;2023-06-10T06:24:38;4.07;;;1.95;;
70414;SDS011;57837;52.064;113.478;2023-06-10T06:27:42;6.18;;;1.40;;
70414;SDS011;57837;52.064;113.478;2023-06-10T06:30:46;5.57;;;1.57;;
70414;SDS011;57837;52.064;113.478;2023-06-10T06:33:50;5.28;;;1.50;;
70414;SDS011;57837;52.064;113.478;2023-06-10T06:36:54;6.80;;;2.20;;
70414;SDS011;57837;52.064;113.478;2023-06-10T06:39:59;8.60;;;2.03;;
70414;SDS011;57837;52.064;113.478;2023-06-10T06:43:06;4.20;;;1.80;;
70414;SDS011;57837;52.064;113.478;2023-06-10T06:46:10;34.63;;;3.40;;
70414;SDS011;57837;52.064;113.478;2023-06-10T06:49:16;39.90;;;3.35;;
70414;SDS011;57837;52.064;113.478;2023-06-10T06:52:20;3.75;;;1.40;;
70414;SDS011;57837;52.064;113.478;2023-06-10T06:55:25;3.92;;;1.45;;
70414;SDS011;57837;52.064;113.478;2023-06-10T06:58:29;5.63;;;1.45;;
70414;SDS011;57837;52.064;113.478;2023-06-10T07:01:33;7.43;;;1.67;;
70414;SDS011;57837;52.064;113.478;2023-06-10T07:04:38;10.52;;;1.98;;
70414;SDS011;57837;52.064;113.478;2023-06-10T07:07:44;31.20;;;3.22;;
70414;SDS011;57837;52.064;113.478;2023-06-10T07:10:48;27.17;;;3.40;;
70414;SDS011;57837;52.064;113.478;2023-06-10T07:13:52;5.88;;;1.77;;
70414;SDS011;57837;52.064;113.478;2023-06-10T07:16:56;8.53;;;1.60;;
70414;SDS011;57837;52.064;113.478;2023-06-10T07:20:00;50.53;;;5.18;;
70414;SDS011;57837;52.064;113.478;2023-06-10T07:23:04;8.38;;;2.03;;
70414;SDS011;57837;52.064;113.478;2023-06-10T07:26:08;5.78;;;1.40;;
70414;SDS011;57837;52.064;113.478;2023-06-10T07:29:13;12.75;;;2.80;;
70414;SDS011;57837;52.064;113.478;2023-06-10T07:32:18;8.37;;;1.93;;
70414;SDS011;57837;52.064;113.478;2023-06-10T07:35:26;8.63;;;2.53;;
70414;SDS011;57837;52.064;113.478;2023-06-10T07:38:31;12.10;;;2.22;;
70414;SDS011;57837;52.064;113.478;2023-06-10T07:41:34;6.93;;;1.60;;
70414;SDS011;57837;52.064;113.478;2023-06-10T07:44:39;3.13;;;1.55;;
70414;SDS011;57837;52.064;113.478;2023-06-10T07:47:42;2.93;;;1.30;;
70414;SDS011;57837;52.064;113.478;2023-06-10T07:50:46;4.65;;;1.30;;
70414;SDS011;57837;52.064;113.478;2023-06-10T07:53:50;4.97;;;1.45;;
70414;SDS011;57837;52.064;113.478;2023-06-10T07:56:54;5.07;;;1.48;;
70414;SDS011;57837;52.064;113.478;2023-06-10T07:59:58;6.63;;;1.48;;
70414;SDS011;57837;52.064;113.478;2023-06-10T08:03:12;33.63;;;3.80;;
70414;SDS011;57837;52.064;113.478;2023-06-10T08:06:16;6.57;;;1.65;;
70414;SDS011;57837;52.064;113.478;2023-06-10T08:09:20;6.53;;;1.92;;
70414;SDS011;57837;52.064;113.478;2023-06-10T08:12:26;9.40;;;2.35;;
70414;SDS011;57837;52.064;113.478;2023-06-10T08:15:30;8.15;;;1.77;;
70414;SDS011;57837;52.064;113.478;2023-06-10T08:18:34;8.97;;;2.50;;
70414;SDS011;57837;52.064;113.478;2023-06-10T08:21:37;8.02;;;2.60;;
70414;SDS011;57837;52.064;113.478;2023-06-10T08:24:42;2.70;;;1.58;;
70414;SDS011;57837;52.064;113.478;2023-06-10T08:27:49;12.20;;;2.85;;
70414;SDS011;57837;52.064;113.478;2023-06-10T08:30:54;5.38;;;1.67;;
70414;SDS011;57837;52.064;113.478;2023-06-10T08:33:58;4.03;;;1.50;;
70414;SDS011;57837;52.064;113.478;2023-06-10T08:37:02;4.22;;;1.55;;
70414;SDS011;57837;52.064;113.478;2023-06-10T08:40:06;12.10;;;2.75;;
70414;SDS011;57837;52.064;113.478;2023-06-10T08:43:22;3.80;;;1.63;;
70414;SDS011;57837;52.064;113.478;2023-06-10T08:46:39;4.45;;;1.80;;
70414;SDS011;57837;52.064;113.478;2023-06-10T08:49:47;4.40;;;1.50;;
70414;SDS011;57837;52.064;113.478;2023-06-10T08:52:53;12.88;;;3.30;;
70414;SDS011;57837;52.064;113.478;2023-06-10T08:56:00;9.43;;;2.20;;
70414;SDS011;57837;52.064;113.478;2023-06-10T08:59:07;4.15;;;1.50;;
70414;SDS011;57837;52.064;113.478;2023-06-10T09:02:12;3.85;;;1.65;;
70414;SDS011;57837;52.064;113.478;2023-06-10T09:05:18;2.97;;;1.40;;
70414;SDS011;57837;52.064;113.478;2023-06-10T09:08:22;3.03;;;1.55;;
70414;SDS011;57837;52.064;113.478;2023-06-10T09:11:27;7.03;;;2.35;;
70414;SDS011;57837;52.064;113.478;2023-06-10T09:14:30;14.38;;;1.92;;
70414;SDS011;57837;52.064;113.478;2023-06-10T09:17:34;11.35;;;2.20;;
70414;SDS011;57837;52.064;113.478;2023-06-10T09:20:39;4.87;;;1.93;;
70414;SDS011;57837;52.064;113.478;2023-06-10T09:23:45;4.78;;;2.72;;
70414;SDS011;57837;52.064;113.478;2023-06-10T09:26:48;5.07;;;2.42;;
70414;SDS011;57837;52.064;113.478;2023-06-10T09:29:54;4.45;;;1.67;;
70414;SDS011;57837;52.064;113.478;2023-06-10T09:33:02;10.10;;;1.70;;
70414;SDS011;57837;52.064;113.478;2023-06-10T09:36:20;5.73;;;1.80;;
70414;SDS011;57837;52.064;113.478;2023-06-10T09:39:25;3.17;;;1.80;;
70414;SDS011;57837;52.064;113.478;2023-06-10T09:42:29;6.82;;;2.42;;
70414;SDS011;57837;52.064;113.478;2023-06-10T09:45:37;7.95;;;2.63;;
70414;SDS011;57837;52.064;113.478;2023-06-10T09:48:41;5.60;;;2.22;;
70414;SDS011;57837;52.064;113.478;2023-06-10T09:51:53;3.20;;;1.57;;
70414;SDS011;57837;52.064;113.478;2023-06-10T09:54:59;4.47;;;1.60;;
70414;SDS011;57837;52.064;113.478;2023-06-10T09:58:04;5.70;;;2.17;;
70414;SDS011;57837;52.064;113.478;2023-06-10T10:01:10;4.72;;;1.95;;
70414;SDS011;57837;52.064;113.478;2023-06-10T10:04:22;4.03;;;2.00;;
70414;SDS011;57837;52.064;113.478;2023-06-10T10:07:30;4.80;;;1.87;;
70414;SDS011;57837;52.064;113.478;2023-06-10T10:10:33;11.32;;;3.20;;
70414;SDS011;57837;52.064;113.478;2023-06-10T10:13:38;9.75;;;2.72;;
70414;SDS011;57837;52.064;113.478;2023-06-10T10:16:42;4.07;;;1.70;;
70414;SDS011;57837;52.064;113.478;2023-06-10T10:19:48;6.07;;;2.58;;
70414;SDS011;57837;52.064;113.478;2023-06-10T10:22:59;3.33;;;1.90;;
70414;SDS011;57837;52.064;113.478;2023-06-10T10:26:07;4.60;;;2.20;;
70414;SDS011;57837;52.064;113.478;2023-06-10T10:29:20;8.23;;;2.30;;
70414;SDS011;57837;52.064;113.478;2023-06-10T10:32:45;13.00;;;2.33;;
70414;SDS011;57837;52.064;113.478;2023-06-10T10:36:15;8.32;;;4.22;;
70414;SDS011;57837;52.064;113.478;2023-06-10T10:39:20;8.67;;;1.80;;
70414;SDS011;57837;52.064;113.478;2023-06-10T10:42:24;3.35;;;1.67;;
70414;SDS011;57837;52.064;113.478;2023-06-10T10:45:29;7.68;;;1.90;;
70414;SDS011;57837;52.064;113.478;2023-06-10T10:48:37;2.80;;;1.40;;
70414;SDS011;57837;52.064;113.478;2023-06-10T10:51:54;10.02;;;2.25;;
70414;SDS011;57837;52.064;113.478;2023-06-10T10:55:01;6.93;;;2.23;;
70414;SDS011;57837;52.064;113.478;2023-06-10T10:58:15;3.92;;;1.75;;
70414;SDS011;57837;52.064;113.478;2023-06-10T11:01:19;5.60;;;1.92;;
70414;SDS011;57837;52.064;113.478;2023-06-10T11:04:23;6.72;;;1.70;;
70414;SDS011;57837;52.064;113.478;2023-06-10T11:07:31;3.95;;;1.83;;
70414;SDS011;57837;52.064;113.478;2023-06-10T11:10:37;6.03;;;2.67;;
70414;SDS011;57837;52.064;113.478;2023-06-10T11:13:41;6.70;;;2.05;;
70414;SDS011;57837;52.064;113.478;2023-06-10T11:17:17;5.90;;;2.53;;
70414;SDS011;57837;52.064;113.478;2023-06-10T11:23:46;9.32;;;2.50;;
70414;SDS011;57837;52.064;113.478;2023-06-10T11:26:50;8.00;;;2.37;;
70414;SDS011;57837;52.064;113.478;2023-06-10T11:29:58;5.25;;;2.83;;
70414;SDS011;57837;52.064;113.478;2023-06-10T11:33:28;9.73;;;2.38;;
70414;SDS011;57837;52.064;113.478;2023-06-10T11:36:34;5.65;;;1.90;;
70414;SDS011;57837;52.064;113.478;2023-06-10T11:39:40;9.40;;;3.20;;
70414;SDS011;57837;52.064;113.478;2023-06-10T11:42:45;8.40;;;3.43;;
70414;SDS011;57837;52.064;113.478;2023-06-10T11:45:53;5.95;;;3.13;;
70414;SDS011;57837;52.064;113.478;2023-06-10T11:48:59;14.00;;;5.03;;
70414;SDS011;57837;52.064;113.478;2023-06-10T11:52:05;10.80;;;2.65;;
70414;SDS011;57837;52.064;113.478;2023-06-10T11:55:09;18.58;;;4.57;;
70414;SDS011;57837;52.064;113.478;2023-06-10T11:58:16;6.53;;;2.67;;
70414;SDS011;57837;52.064;113.478;2023-06-10T12:01:22;12.07;;;2.33;;
70414;SDS011;57837;52.064;113.478;2023-06-10T12:04:31;4.90;;;2.10;;
70414;SDS011;57837;52.064;113.478;2023-06-10T12:07:34;6.18;;;2.42;;
70414;SDS011;57837;52.064;113.478;2023-06-10T12:10:41;5.45;;;2.08;;
70414;SDS011;57837;52.064;113.478;2023-06-10T12:13:46;6.97;;;1.80;;
70414;SDS011;57837;52.064;113.478;2023-06-10T12:16:54;9.55;;;1.92;;
70414;SDS011;57837;52.064;113.478;2023-06-10T12:20:00;10.95;;;2.38;;
70414;SDS011;57837;52.064;113.478;2023-06-10T12:23:12;8.30;;;2.63;;
70414;SDS011;57837;52.064;113.478;2023-06-10T12:26:16;5.30;;;1.80;;
70414;SDS011;57837;52.064;113.478;2023-06-10T12:32:42;4.28;;;1.67;;
70414;SDS011;57837;52.064;113.478;2023-06-10T12:35:51;6.20;;;1.90;;
70414;SDS011;57837;52.064;113.478;2023-06-10T12:39:02;4.38;;;1.60;;
70414;SDS011;57837;52.064;113.478;2023-06-10T12:42:08;9.35;;;2.10;;
70414;SDS011;57837;52.064;113.478;2023-06-10T12:45:12;6.17;;;2.00;;
70414;SDS011;57837;52.064;113.478;2023-06-10T12:48:19;10.23;;;1.80;;
70414;SDS011;57837;52.064;113.478;2023-06-10T12:51:26;12.55;;;2.25;;
70414;SDS011;57837;52.064;113.478;2023-06-10T12:54:29;11.98;;;2.22;;
70414;SDS011;57837;52.064;113.478;2023-06-10T12:57:33;8.82;;;2.28;;
70414;SDS011;57837;52.064;113.478;2023-06-10T13:00:36;7.40;;;2.50;;
70414;SDS011;57837;52.064;113.478;2023-06-10T13:03:41;6.38;;;2.78;;
70414;SDS011;57837;52.064;113.478;2023-06-10T13:06:45;8.63;;;3.35;;
70414;SDS011;57837;52.064;113.478;2023-06-10T13:09:50;7.15;;;2.92;;
70414;SDS011;57837;52.064;113.478;2023-06-10T13:12:54;8.63;;;3.40;;
70414;SDS011;57837;52.064;113.478;2023-06-10T13:15:57;5.97;;;3.20;;
70414;SDS011;57837;52.064;113.478;2023-06-10T13:19:01;7.38;;;2.92;;
70414;SDS011;57837;52.064;113.478;2023-06-10T13:22:08;10.73;;;2.83;;
70414;SDS011;57837;52.064;113.478;2023-06-10T13:25:12;5.60;;;2.60;;
70414;SDS011;57837;52.064;113.478;2023-06-10T13:28:16;10.48;;;2.25;;
70414;SDS011;57837;52.064;113.478;2023-06-10T13:31:20;7.23;;;2.17;;
70414;SDS011;57837;52.064;113.478;2023-06-10T13:34:24;8.13;;;2.40;;
70414;SDS011;57837;52.064;113.478;2023-06-10T13:37:28;4.13;;;2.22;;
70414;SDS011;57837;52.064;113.478;2023-06-10T13:40:32;3.95;;;1.88;;
70414;SDS011;57837;52.064;113.478;2023-06-10T13:43:35;8.95;;;2.03;;
70414;SDS011;57837;52.064;113.478;2023-06-10T13:46:38;5.10;;;2.00;;
70414;SDS011;57837;52.064;113.478;2023-06-10T13:49:42;5.15;;;2.20;;
70414;SDS011;57837;52.064;113.478;2023-06-10T13:52:46;4.10;;;2.28;;
70414;SDS011;57837;52.064;113.478;2023-06-10T13:55:50;7.45;;;2.15;;
70414;SDS011;57837;52.064;113.478;2023-06-10T13:58:54;6.63;;;2.15;;
70414;SDS011;57837;52.064;113.478;2023-06-10T14:01:58;5.57;;;2.33;;
70414;SDS011;57837;52.064;113.478;2023-06-10T14:05:25;5.90;;;2.08;;
70414;SDS011;57837;52.064;113.478;2023-06-10T14:08:33;5.05;;;2.50;;
70414;SDS011;57837;52.064;113.478;2023-06-10T14:11:37;6.15;;;2.53;;
70414;SDS011;57837;52.064;113.478;2023-06-10T14:14:40;4.43;;;2.08;;
70414;SDS011;57837;52.064;113.478;2023-06-10T14:17:44;4.53;;;2.30;;
70414;SDS011;57837;52.064;113.478;2023-06-10T14:20:48;4.00;;;2.00;;
70414;SDS011;57837;52.064;113.478;2023-06-10T14:23:53;5.80;;;1.95;;
70414;SDS011;57837;52.064;113.478;2023-06-10T14:26:56;14.30;;;2.25;;
70414;SDS011;57837;52.064;113.478;2023-06-10T14:30:01;9.50;;;4.88;;
70414;SDS011;57837;52.064;113.478;2023-06-10T14:33:06;15.40;;;7.87;;
70414;SDS011;57837;52.064;113.478;2023-06-10T14:36:11;15.73;;;7.72;;
70414;SDS011;57837;52.064;113.478;2023-06-10T14:39:14;16.70;;;7.55;;
70414;SDS011;57837;52.064;113.478;2023-06-10T14:42:17;10.98;;;6.97;;
70414;SDS011;57837;52.064;113.478;2023-06-10T14:45:21;15.60;;;7.72;;
70414;SDS011;57837;52.064;113.478;2023-06-10T14:48:25;17.47;;;6.90;;
70414;SDS011;57837;52.064;113.478;2023-06-10T14:51:28;13.57;;;7.47;;
70414;SDS011;57837;52.064;113.478;2023-06-10T14:54:34;17.73;;;7.90;;
70414;SDS011;57837;52.064;113.478;2023-06-10T14:57:37;13.27;;;6.90;;
70414;SDS011;57837;52.064;113.478;2023-06-10T15:00:40;16.13;;;6.72;;
70414;SDS011;57837;52.064;113.478;2023-06-10T15:03:44;13.03;;;6.33;;
70414;SDS011;57837;52.064;113.478;2023-06-10T15:06:48;16.23;;;6.30;;
70414;SDS011;57837;52.064;113.478;2023-06-10T15:09:53;10.88;;;5.70;;
70414;SDS011;57837;52.064;113.478;2023-06-10T15:12:57;11.65;;;5.55;;
70414;SDS011;57837;52.064;113.478;2023-06-10T15:16:00;13.63;;;6.38;;
70414;SDS011;57837;52.064;113.478;2023-06-10T15:19:05;11.50;;;5.50;;
70414;SDS011;57837;52.064;113.478;2023-06-10T15:22:11;10.32;;;5.32;;
70414;SDS011;57837;52.064;113.478;2023-06-10T15:25:16;13.70;;;5.45;;
70414;SDS011;57837;52.064;113.478;2023-06-10T15:28:32;10.77;;;5.70;;
70414;SDS011;57837;52.064;113.478;2023-06-10T15:31:35;11.32;;;5.10;;
70414;SDS011;57837;52.064;113.478;2023-06-10T15:34:40;12.47;;;5.20;;
70414;SDS011;57837;52.064;113.478;2023-06-10T15:37:43;13.23;;;7.00;;
70414;SDS011;57837;52.064;113.478;2023-06-10T15:40:46;12.13;;;5.75;;
70414;SDS011;57837;52.064;113.478;2023-06-10T15:43:49;15.07;;;7.07;;
70414;SDS011;57837;52.064;113.478;2023-06-10T15:46:53;16.48;;;5.82;;
70414;SDS011;57837;52.064;113.478;2023-06-10T15:49:57;13.07;;;5.87;;
70414;SDS011;57837;52.064;113.478;2023-06-10T15:53:01;13.57;;;5.82;;
70414;SDS011;57837;52.064;113.478;2023-06-10T15:56:04;11.60;;;4.88;;
70414;SDS011;57837;52.064;113.478;2023-06-10T15:59:08;8.38;;;4.25;;
70414;SDS011;57837;52.064;113.478;2023-06-10T16:02:13;9.70;;;4.65;;
70414;SDS011;57837;52.064;113.478;2023-06-10T16:05:16;7.50;;;4.60;;
70414;SDS011;57837;52.064;113.478;2023-06-10T16:08:20;9.32;;;4.22;;
70414;SDS011;57837;52.064;113.478;2023-06-10T16:11:23;7.43;;;3.67;;
70414;SDS011;57837;52.064;113.478;2023-06-10T16:14:28;7.07;;;3.20;;
70414;SDS011;57837;52.064;113.478;2023-06-10T16:17:32;6.45;;;3.67;;
70414;SDS011;57837;52.064;113.478;2023-06-10T16:20:36;9.07;;;4.43;;
70414;SDS011;57837;52.064;113.478;2023-06-10T16:23:40;7.50;;;3.75;;
70414;SDS011;57837;52.064;113.478;2023-06-10T16:26:44;10.02;;;3.80;;
70414;SDS011;57837;52.064;113.478;2023-06-10T16:29:47;11.65;;;3.92;;
70414;SDS011;57837;52.064;113.478;2023-06-10T16:32:50;7.88;;;4.40;;
70414;SDS011;57837;52.064;113.478;2023-06-10T16:35:54;6.20;;;3.80;;
70414;SDS011;57837;52.064;113.478;2023-06-10T16:38:57;16.05;;;5.30;;
70414;SDS011;57837;52.064;113.478;2023-06-10T16:42:02;13.38;;;5.90;;
70414;SDS011;57837;52.064;113.478;2023-06-10T16:45:06;21.35;;;8.50;;
70414;SDS011;57837;52.064;113.478;2023-06-10T16:48:11;17.58;;;7.07;;
70414;SDS011;57837;52.064;113.478;2023-06-10T16:51:16;16.70;;;7.70;;
70414;SDS011;57837;52.064;113.478;2023-06-10T16:54:19;18.25;;;7.05;;
70414;SDS011;57837;52.064;113.478;2023-06-10T16:57:23;28.65;;;6.40;;
70414;SDS011;57837;52.064;113.478;2023-06-10T17:00:27;30.55;;;7.53;;
70414;SDS011;57837;52.064;113.478;2023-06-10T17:03:31;23.17;;;5.85;;
70414;SDS011;57837;52.064;113.478;2023-06-10T17:06:34;12.20;;;5.30;;
70414;SDS011;57837;52.064;113.478;2023-06-10T17:09:38;16.95;;;6.30;;
70414;SDS011;57837;52.064;113.478;2023-06-10T17:12:42;13.57;;;5.32;;
70414;SDS011;57837;52.064;113.478;2023-06-10T17:15:46;9.45;;;4.40;;
70414;SDS011;57837;52.064;113.478;2023-06-10T17:18:50;13.27;;;4.32;;
70414;SDS011;57837;52.064;113.478;2023-06-10T17:21:54;9.07;;;4.07;;
70414;SDS011;57837;52.064;113.478;2023-06-10T17:24:59;9.52;;;4.30;;
70414;SDS011;57837;52.064;113.478;2023-06-10T17:28:03;9.30;;;3.38;;
70414;SDS011;57837;52.064;113.478;2023-06-10T17:31:06;8.82;;;3.95;;
70414;SDS011;57837;52.064;113.478;2023-06-10T17:34:10;10.65;;;4.88;;
70414;SDS011;57837;52.064;113.478;2023-06-10T17:37:14;10.07;;;4.50;;
70414;SDS011;57837;52.064;113.478;2023-06-10T17:40:17;11.77;;;5.22;;
70414;SDS011;57837;52.064;113.478;2023-06-10T17:43:21;15.57;;;5.50;;
70414;SDS011;57837;52.064;113.478;2023-06-10T17:46:25;17.80;;;6.30;;
70414;SDS011;57837;52.064;113.478;2023-06-10T17:49:29;17.17;;;10.27;;
70414;SDS011;57837;52.064;113.478;2023-06-10T17:52:34;23.53;;;11.10;;
70414;SDS011;57837;52.064;113.478;2023-06-10T17:55:38;33.83;;;11.93;;
70414;SDS011;57837;52.064;113.478;2023-06-10T17:58:42;27.15;;;12.43;;
70414;SDS011;57837;52.064;113.478;2023-06-10T18:01:46;32.17;;;12.63;;
70414;SDS011;57837;52.064;113.478;2023-06-10T18:04:50;27.63;;;12.25;;
70414;SDS011;57837;52.064;113.478;2023-06-10T18:07:54;36.33;;;17.60;;
70414;SDS011;57837;52.064;113.478;2023-06-10T18:10:57;36.63;;;17.17;;